Time;durP1;ratioP1;P1;durP2;ratioP2;P2;SDS_P1;SDS_P2;PMS_P1;PMS_P2;Temp;Humidity;BMP_temperature;BMP_pressure;BME280_temperature;BME280_humidity;BME280_pressure;Samples;Min_cycle;Max_cycle;Signal;HPM_P1;HPM_P2
2023/03/28 00:02:23;;;;;;;13.73;5.90;;;-3.80;99.90;;;;;;4428564;28;659784;-64
2023/03/28 00:05:11;;;;;;;25.33;7.63;;;-3.80;99.90;;;;;;4415334;28;659136;-64
2023/03/28 00:07:58;;;;;;;18.33;6.63;;;-3.80;99.90;;;;;;4436320;28;659033;-64
2023/03/28 00:10:47;;;;;;;15.60;6.60;;;-3.80;99.90;;;;;;4411998;28;658592;-64
2023/03/28 00:13:35;;;;;;;17.67;6.00;;;-3.80;99.90;;;;;;4437499;28;659503;-64
2023/03/28 00:16:24;;;;;;;18.90;7.97;;;-3.90;99.90;;;;;;4435848;28;660295;-64
2023/03/28 00:19:13;;;;;;;20.77;7.70;;;-3.90;99.90;;;;;;4416451;28;658430;-64
2023/03/28 00:22:00;;;;;;;22.17;7.90;;;-3.80;99.90;;;;;;4420573;28;658692;-64
2023/03/28 00:24:48;;;;;;;21.17;7.80;;;-3.70;99.90;;;;;;4437139;28;658507;-64
2023/03/28 00:27:37;;;;;;;21.53;8.17;;;-3.60;99.90;;;;;;4422134;28;658599;-64
2023/03/28 00:30:24;;;;;;;19.07;7.37;;;-3.40;99.90;;;;;;4432164;28;658854;-64
2023/03/28 00:33:11;;;;;;;19.80;7.07;;;-3.40;99.90;;;;;;4414715;28;660353;-64
2023/03/28 00:35:58;;;;;;;19.58;7.15;;;-3.40;99.90;;;;;;4437577;28;659546;-64
2023/03/28 00:38:45;;;;;;;22.93;8.03;;;-3.40;99.90;;;;;;4414258;28;658535;-64
2023/03/28 00:41:33;;;;;;;21.83;7.40;;;-3.40;99.90;;;;;;4433756;28;659647;-64
2023/03/28 00:44:42;;;;;;;20.30;7.67;;;-3.30;99.90;;;;;;4405390;28;659241;-64
2023/03/28 00:47:39;;;;;;;24.93;7.93;;;-3.40;99.90;;;;;;4412704;28;658362;-64
2023/03/28 00:50:27;;;;;;;31.67;8.00;;;-3.30;99.90;;;;;;4389111;28;659060;-64
2023/03/28 00:53:16;;;;;;;16.40;7.33;;;-3.40;99.90;;;;;;4432237;28;659132;-64
2023/03/28 00:56:05;;;;;;;17.40;7.53;;;-3.50;99.90;;;;;;4435374;28;660744;-64
2023/03/28 00:58:52;;;;;;;27.57;8.33;;;-3.60;99.90;;;;;;4414948;28;658667;-64
2023/03/28 01:01:42;;;;;;;22.57;8.27;;;-3.50;99.90;;;;;;4435834;28;658424;-64
2023/03/28 01:04:35;;;;;;;26.37;8.80;;;-3.50;99.90;;;;;;4431084;28;658857;-64
2023/03/28 01:07:22;;;;;;;21.87;8.87;;;-3.60;99.90;;;;;;4385809;28;659128;-64
2023/03/28 01:10:10;;;;;;;22.67;9.50;;;-3.60;99.90;;;;;;4439245;28;660191;-64
2023/03/28 01:12:57;;;;;;;28.20;9.70;;;-3.60;99.90;;;;;;4415425;28;659206;-64
2023/03/28 01:15:44;;;;;;;28.97;10.13;;;-3.70;99.90;;;;;;4429915;28;658889;-64
2023/03/28 01:18:33;;;;;;;25.70;9.73;;;-3.70;99.90;;;;;;4413212;28;659799;-64
2023/03/28 01:22:05;;;;;;;27.20;9.50;;;-3.70;99.90;;;;;;4409143;28;658565;-64
2023/03/28 01:25:12;;;;;;;26.37;9.57;;;-3.70;99.90;;;;;;4387869;28;659074;-65
2023/03/28 01:28:02;;;;;;;30.80;11.70;;;-3.70;99.90;;;;;;4430216;28;658587;-64
2023/03/28 01:31:01;;;;;;;29.07;10.27;;;-3.50;99.90;;;;;;4434838;28;660100;-64
2023/03/28 01:34:03;;;;;;;27.40;10.57;;;-3.30;99.90;;;;;;4419722;28;659663;-64
2023/03/28 01:36:59;;;;;;;24.07;10.40;;;-3.40;99.90;;;;;;4395661;28;659857;-65
2023/03/28 01:40:00;;;;;;;27.40;9.80;;;-3.40;99.90;;;;;;4388649;28;660820;-64
2023/03/28 01:42:53;;;;;;;23.87;9.77;;;-3.40;99.90;;;;;;4391193;28;659951;-64
2023/03/28 01:45:45;;;;;;;28.30;10.20;;;-3.40;99.90;;;;;;4403381;28;659135;-64
2023/03/28 01:48:37;;;;;;;25.80;9.23;;;-3.40;99.90;;;;;;4410190;28;661026;-64
2023/03/28 01:51:28;;;;;;;26.83;10.33;;;-3.40;99.90;;;;;;4419543;28;659018;-64
2023/03/28 01:54:22;;;;;;;26.57;10.57;;;-3.40;99.90;;;;;;4403329;28;660306;-64
2023/03/28 01:57:11;;;;;;;23.58;8.80;;;-3.20;99.90;;;;;;4410511;28;660039;-64
2023/03/28 02:00:00;;;;;;;26.90;10.23;;;-3.10;99.90;;;;;;4414982;28;659492;-64
2023/03/28 02:02:49;;;;;;;30.27;12.00;;;-3.00;99.90;;;;;;4419276;28;659845;-64
2023/03/28 02:05:37;;;;;;;27.00;9.83;;;-2.90;99.90;;;;;;4419888;28;660105;-64
2023/03/28 02:08:26;;;;;;;30.80;11.10;;;-3.00;99.90;;;;;;4441520;28;658128;-64
2023/03/28 02:11:14;;;;;;;32.40;11.73;;;-3.00;99.90;;;;;;4406196;28;661374;-64
2023/03/28 02:14:04;;;;;;;29.30;11.40;;;-3.00;99.90;;;;;;4412632;28;659670;-64
2023/03/28 02:16:53;;;;;;;27.23;11.60;;;-3.00;99.90;;;;;;4416462;28;660119;-64
2023/03/28 02:19:40;;;;;;;26.60;11.60;;;-2.90;99.90;;;;;;4429757;28;659877;-64
2023/03/28 02:22:30;;;;;;;25.83;10.87;;;-2.90;99.90;;;;;;4437314;28;660111;-64
2023/03/28 02:25:17;;;;;;;30.30;10.77;;;-2.70;99.90;;;;;;4414197;28;660188;-64
2023/03/28 02:28:07;;;;;;;30.83;11.33;;;-2.60;99.90;;;;;;4438753;28;660088;-64
2023/03/28 02:30:55;;;;;;;24.07;10.60;;;-2.50;99.90;;;;;;4427344;28;660045;-64
2023/03/28 02:33:42;;;;;;;28.43;11.40;;;-2.40;99.90;;;;;;4414069;28;660194;-64
2023/03/28 02:36:36;;;;;;;25.53;10.93;;;-2.30;99.90;;;;;;4435182;28;659693;-64
2023/03/28 02:39:31;;;;;;;28.67;11.80;;;-2.10;99.90;;;;;;4417930;28;660729;-64
2023/03/28 02:42:45;;;;;;;24.57;10.77;;;-2.10;99.90;;;;;;4420747;28;659564;-64
2023/03/28 02:45:48;;;;;;;22.50;8.90;;;-2.00;99.90;;;;;;4421926;28;659513;-64
2023/03/28 02:48:46;;;;;;;23.73;10.17;;;-1.90;99.90;;;;;;4398473;28;659504;-64
2023/03/28 02:51:35;;;;;;;23.33;9.77;;;-1.90;99.90;;;;;;4412613;28;660188;-64
2023/03/28 02:54:29;;;;;;;23.90;9.83;;;-1.90;99.90;;;;;;4413772;28;660441;-64
2023/03/28 02:57:21;;;;;;;24.93;10.73;;;-1.80;99.90;;;;;;4420109;28;658421;-64
2023/03/28 03:00:10;;;;;;;24.83;9.30;;;-1.80;99.90;;;;;;4417375;28;660614;-64
2023/03/28 03:03:00;;;;;;;22.70;8.07;;;-1.80;99.90;;;;;;4413108;28;660194;-64
2023/03/28 03:05:47;;;;;;;23.37;10.07;;;-1.70;99.90;;;;;;4421203;28;659559;-64
2023/03/28 03:08:34;;;;;;;28.87;12.23;;;-1.70;99.90;;;;;;4435079;28;660073;-63
2023/03/28 03:11:23;;;;;;;29.90;12.63;;;-1.70;99.90;;;;;;4414701;28;660461;-64
2023/03/28 03:14:11;;;;;;;29.10;11.23;;;-1.70;99.90;;;;;;4412844;28;659487;-64
2023/03/28 03:16:58;;;;;;;24.40;10.23;;;-1.60;99.90;;;;;;4436640;28;660268;-64
2023/03/28 03:19:47;;;;;;;26.67;11.80;;;-1.60;99.90;;;;;;4416345;28;659452;-64
2023/03/28 03:22:35;;;;;;;16.33;7.77;;;-1.60;99.90;;;;;;4438220;28;659372;-64
2023/03/28 03:25:22;;;;;;;25.33;11.00;;;-1.50;99.90;;;;;;4416893;28;660687;-64
2023/03/28 03:28:09;;;;;;;23.13;10.33;;;-1.40;99.90;;;;;;4438392;28;659577;-64
2023/03/28 03:30:57;;;;;;;20.70;9.33;;;-1.50;99.90;;;;;;4420275;28;660151;-64
2023/03/28 03:33:44;;;;;;;19.07;8.50;;;-1.50;99.90;;;;;;4429443;28;658615;-64
2023/03/28 03:36:32;;;;;;;24.23;11.13;;;-1.50;99.90;;;;;;4413081;28;658631;-64
2023/03/28 03:39:20;;;;;;;24.50;10.33;;;-1.50;99.90;;;;;;4431359;28;659453;-64
2023/03/28 03:42:08;;;;;;;22.47;10.07;;;-1.40;99.90;;;;;;4438059;28;661251;-64
2023/03/28 03:44:55;;;;;;;23.80;10.30;;;-1.40;99.90;;;;;;4426249;28;659861;-64
2023/03/28 03:47:42;;;;;;;19.43;9.73;;;-1.40;99.90;;;;;;4438543;28;660325;-65
2023/03/28 03:50:30;;;;;;;35.83;15.03;;;-1.40;99.90;;;;;;4412567;28;659919;-64
2023/03/28 03:53:19;;;;;;;30.83;13.43;;;-1.50;99.90;;;;;;4410728;28;660232;-64
2023/03/28 03:56:07;;;;;;;34.77;14.17;;;-1.50;99.90;;;;;;4384120;28;660333;-64
2023/03/28 03:58:55;;;;;;;34.45;14.43;;;-1.50;99.90;;;;;;4404235;28;660184;-63
2023/03/28 04:01:42;;;;;;;33.53;16.00;;;-1.50;99.90;;;;;;4386667;28;660385;-64
2023/03/28 04:04:30;;;;;;;34.63;13.63;;;-1.50;99.90;;;;;;4405153;28;659543;-64
2023/03/28 04:07:17;;;;;;;29.23;13.67;;;-1.50;99.90;;;;;;4389831;28;660584;-64
2023/03/28 04:10:06;;;;;;;25.20;11.93;;;-1.50;99.90;;;;;;4398013;28;660491;-64
2023/03/28 04:12:54;;;;;;;32.13;13.10;;;-1.30;99.90;;;;;;4383358;28;659509;-64
2023/03/28 04:15:42;;;;;;;18.70;8.83;;;-1.30;99.90;;;;;;4383540;28;660568;-64
2023/03/28 04:18:30;;;;;;;24.63;11.93;;;-1.20;99.90;;;;;;4407619;28;659141;-64
2023/03/28 04:21:17;;;;;;;22.00;11.27;;;-1.20;99.90;;;;;;4396690;28;660942;-64
2023/03/28 04:24:05;;;;;;;27.07;12.20;;;-1.20;99.90;;;;;;4411739;28;659476;-64
2023/03/28 04:26:54;;;;;;;18.73;8.23;;;-1.20;99.90;;;;;;4391238;28;660503;-64
2023/03/28 04:29:42;;;;;;;23.37;12.10;;;-1.20;99.90;;;;;;4381103;28;658917;-64
2023/03/28 04:32:34;;;;;;;30.35;12.88;;;-1.10;99.90;;;;;;4405136;28;661541;-64
2023/03/28 04:35:22;;;;;;;32.93;14.87;;;-1.20;99.90;;;;;;4355386;28;660869;-64
2023/03/28 04:38:09;;;;;;;32.07;14.23;;;-1.20;99.90;;;;;;4404962;28;659878;-64
2023/03/28 04:40:57;;;;;;;31.03;13.10;;;-1.20;99.90;;;;;;4381134;28;659415;-64
2023/03/28 04:43:46;;;;;;;27.57;12.20;;;-1.30;99.90;;;;;;4392646;28;659720;-64
2023/03/28 04:46:33;;;;;;;35.23;15.20;;;-1.30;99.90;;;;;;4387387;28;660033;-64
2023/03/28 04:49:20;;;;;;;29.83;14.95;;;-1.40;99.90;;;;;;4410880;28;660123;-64
2023/03/28 04:52:08;;;;;;;29.07;13.03;;;-1.30;99.90;;;;;;4431857;28;660811;-64
2023/03/28 04:54:55;;;;;;;29.90;12.10;;;-1.30;99.90;;;;;;4421361;28;659411;-64
2023/03/28 04:57:42;;;;;;;27.63;11.80;;;-1.30;99.90;;;;;;4438399;28;660267;-64
2023/03/28 05:00:32;;;;;;;28.90;12.27;;;-1.30;99.90;;;;;;4420749;28;661455;-64
2023/03/28 05:03:21;;;;;;;21.93;12.00;;;-1.20;99.90;;;;;;4429137;28;659451;-64
2023/03/28 05:06:08;;;;;;;16.80;8.80;;;-1.20;99.90;;;;;;4413768;28;660318;-64
2023/03/28 05:08:56;;;;;;;26.65;11.70;;;-1.20;99.90;;;;;;4412469;28;659326;-64
2023/03/28 05:11:43;;;;;;;16.67;8.00;;;-1.10;99.90;;;;;;4429522;28;660247;-64
2023/03/28 05:14:31;;;;;;;23.17;10.70;;;-1.00;99.90;;;;;;4416452;28;658359;-64
2023/03/28 05:17:19;;;;;;;23.40;11.00;;;-1.10;99.90;;;;;;4431506;28;660365;-64
2023/03/28 05:20:09;;;;;;;20.60;9.40;;;-1.20;99.90;;;;;;4405311;28;661077;-64
2023/03/28 05:22:57;;;;;;;21.20;9.20;;;-1.40;99.90;;;;;;4418581;28;658571;-63
2023/03/28 05:25:49;;;;;;;25.17;11.23;;;-1.30;99.90;;;;;;4437696;28;658566;-63
2023/03/28 05:28:36;;;;;;;22.05;10.57;;;-1.40;99.90;;;;;;4389475;28;659959;-64
2023/03/28 05:31:24;;;;;;;27.33;11.83;;;-1.40;99.90;;;;;;4436628;28;660261;-63
2023/03/28 05:34:13;;;;;;;25.73;11.73;;;-1.40;99.90;;;;;;4413847;28;660528;-64
2023/03/28 05:37:00;;;;;;;22.83;11.27;;;-1.40;99.90;;;;;;4403105;28;659655;-64
2023/03/28 05:39:47;;;;;;;28.73;11.13;;;-1.40;99.90;;;;;;4439050;28;660536;-64
2023/03/28 05:42:35;;;;;;;32.20;14.13;;;-1.50;99.90;;;;;;4430286;28;659542;-64
2023/03/28 05:45:22;;;;;;;27.07;12.53;;;-1.40;99.90;;;;;;4433279;28;660072;-63
2023/03/28 05:48:10;;;;;;;20.33;10.50;;;-1.30;99.90;;;;;;4425191;28;659548;-64
2023/03/28 05:50:59;;;;;;;29.30;13.33;;;-1.30;99.90;;;;;;4433931;28;660629;-64
2023/03/28 05:53:46;;;;;;;22.42;12.05;;;-1.20;99.90;;;;;;4408212;28;659483;-64
2023/03/28 05:56:34;;;;;;;30.03;12.40;;;-1.20;99.90;;;;;;4432870;28;660724;-64
2023/03/28 05:59:23;;;;;;;24.50;12.60;;;-1.10;99.90;;;;;;4411339;28;659811;-64
2023/03/28 06:02:12;;;;;;;23.50;10.63;;;-1.20;99.90;;;;;;4418829;28;659714;-64
2023/03/28 06:04:59;;;;;;;21.43;11.53;;;-1.10;99.90;;;;;;4433336;28;659803;-64
2023/03/28 06:07:47;;;;;;;24.07;12.70;;;-1.00;99.90;;;;;;4413382;28;660584;-64
2023/03/28 06:10:35;;;;;;;23.30;10.97;;;-0.80;99.90;;;;;;4413497;28;659444;-69
2023/03/28 06:13:22;;;;;;;26.33;11.03;;;-0.70;99.90;;;;;;4435235;28;659869;-68
2023/03/28 06:16:10;;;;;;;23.53;11.90;;;-0.50;99.90;;;;;;4428087;28;659386;-68
2023/03/28 06:18:57;;;;;;;20.33;9.60;;;-0.60;99.90;;;;;;4435984;28;659111;-68
2023/03/28 06:21:45;;;;;;;22.90;11.33;;;-0.60;99.90;;;;;;4432841;28;658039;-68
2023/03/28 06:24:34;;;;;;;24.27;11.00;;;-0.50;99.90;;;;;;4440248;28;659614;-68
2023/03/28 06:27:21;;;;;;;15.73;7.33;;;-0.30;99.90;;;;;;4417030;28;659438;-68
2023/03/28 06:30:09;;;;;;;15.50;6.68;;;-0.30;99.90;;;;;;4439870;28;659224;-67
2023/03/28 06:32:56;;;;;;;20.07;9.17;;;-0.20;99.90;;;;;;4417395;28;659845;-68
2023/03/28 06:35:44;;;;;;;12.80;6.40;;;0.20;99.90;;;;;;4439504;28;658997;-67
2023/03/28 06:38:32;;;;;;;18.33;8.67;;;0.30;99.90;;;;;;4421777;28;658202;-68
2023/03/28 06:41:20;;;;;;;13.13;8.20;;;0.90;99.90;;;;;;4443442;28;657952;-67
2023/03/28 06:44:08;;;;;;;12.17;6.43;;;1.00;99.90;;;;;;4421928;28;658107;-67
2023/03/28 06:46:55;;;;;;;14.07;6.85;;;1.00;99.90;;;;;;4427125;28;658089;-68
2023/03/28 06:49:43;;;;;;;14.43;7.17;;;0.70;99.90;;;;;;4515830;28;658957;-67
2023/03/28 06:52:30;;;;;;;10.17;6.30;;;1.20;99.90;;;;;;5085834;28;20192;-68
2023/03/28 06:55:17;;;;;;;8.63;4.77;;;1.50;99.90;;;;;;5085375;28;20196;-67
2023/03/28 06:58:06;;;;;;;11.87;5.30;;;1.30;99.90;;;;;;5089475;28;20199;-67
2023/03/28 07:00:53;;;;;;;12.43;6.33;;;0.70;99.90;;;;;;5082573;28;20713;-67
2023/03/28 07:03:40;;;;;;;9.23;5.23;;;0.80;99.90;;;;;;5086221;28;20219;-67
2023/03/28 07:06:28;;;;;;;9.33;5.00;;;0.30;99.90;;;;;;5084517;28;20643;-67
2023/03/28 07:09:15;;;;;;;11.43;4.50;;;0.30;99.90;;;;;;5085611;28;20199;-66
2023/03/28 07:12:02;;;;;;;8.83;4.63;;;0.10;99.90;;;;;;5088524;28;20230;-66
2023/03/28 07:14:51;;;;;;;10.13;3.97;;;0.00;99.90;;;;;;5081277;28;20203;-66
2023/03/28 07:17:38;;;;;;;7.00;3.60;;;0.20;99.90;;;;;;5087507;28;20192;-67
2023/03/28 07:20:26;;;;;;;12.10;5.73;;;0.70;99.90;;;;;;5086373;28;20202;-67
2023/03/28 07:23:13;;;;;;;6.90;4.40;;;1.10;99.90;;;;;;5079193;28;20758;-67
2023/03/28 07:26:01;;;;;;;7.57;4.63;;;1.40;99.90;;;;;;5085649;28;20210;-67
2023/03/28 07:28:49;;;;;;;7.70;4.70;;;1.00;99.90;;;;;;5087538;28;20663;-67
2023/03/28 07:31:37;;;;;;;6.13;3.80;;;0.80;99.90;;;;;;5087833;28;20195;-67
2023/03/28 07:34:24;;;;;;;6.23;4.20;;;1.10;99.90;;;;;;5085702;28;20225;-66
2023/03/28 07:37:12;;;;;;;6.90;3.80;;;0.90;99.90;;;;;;5088392;28;20196;-66
2023/03/28 07:39:59;;;;;;;9.07;5.10;;;0.70;99.90;;;;;;5081008;28;20200;-66
2023/03/28 07:42:48;;;;;;;11.87;4.77;;;0.60;99.90;;;;;;5081058;28;20585;-67
2023/03/28 07:45:35;;;;;;;9.77;4.23;;;0.90;99.90;;;;;;5084781;28;20708;-67
2023/03/28 11:10:39;;;;;;;3.83;1.63;;;4.80;81.50;;;;;;5118055;27;20823;-67
2023/03/28 11:13:28;;;;;;;3.73;1.87;;;3.70;81.30;;;;;;5097333;28;20219;-67
2023/03/28 11:16:18;;;;;;;1.90;1.33;;;4.00;81.60;;;;;;5123339;27;20198;-68
2023/03/28 11:19:10;;;;;;;1.87;1.23;;;3.40;82.90;;;;;;5126329;27;20221;-68
2023/03/28 11:22:00;;;;;;;2.37;1.50;;;3.10;89.90;;;;;;5136975;27;20206;-66
2023/03/28 11:24:49;;;;;;;3.20;1.90;;;3.60;86.10;;;;;;5140396;27;20202;-67
2023/03/28 11:27:39;;;;;;;4.23;1.70;;;3.60;95.20;;;;;;5139134;27;20202;-66
2023/03/28 11:30:28;;;;;;;3.37;1.70;;;3.50;91.20;;;;;;5139982;27;20559;-67
2023/03/28 11:33:17;;;;;;;2.60;1.50;;;4.10;90.10;;;;;;5142134;27;20198;-67
2023/03/28 11:36:07;;;;;;;2.50;1.67;;;5.10;84.60;;;;;;5140017;27;20212;-67
2023/03/28 11:38:55;;;;;;;2.53;1.33;;;3.90;80.80;;;;;;5140659;27;20206;-67
2023/03/28 11:41:42;;;;;;;1.90;1.53;;;3.50;83.10;;;;;;5142126;27;20209;-67
2023/03/28 11:44:32;;;;;;;3.17;2.13;;;3.20;90.20;;;;;;5136725;27;20892;-66
2023/03/28 11:47:21;;;;;;;2.43;1.23;;;3.30;90.50;;;;;;5139806;27;20202;-66
2023/03/28 11:50:13;;;;;;;2.17;1.20;;;2.90;85.20;;;;;;5137465;27;20202;-68
2023/03/28 11:53:02;;;;;;;1.83;1.03;;;3.00;83.10;;;;;;5137449;27;20698;-67
2023/03/28 11:55:50;;;;;;;4.13;1.87;;;3.40;84.60;;;;;;5138810;27;20205;-68
2023/03/28 11:58:39;;;;;;;2.37;1.40;;;4.00;89.90;;;;;;5140084;27;20229;-67
2023/03/28 12:01:30;;;;;;;3.57;1.70;;;5.00;85.70;;;;;;5148578;27;20217;-67
2023/03/28 12:04:19;;;;;;;2.83;1.47;;;5.20;78.70;;;;;;5158816;27;21219;-67
2023/03/28 12:07:10;;;;;;;1.40;1.10;;;3.60;77.70;;;;;;5156166;27;20207;-67
2023/03/28 12:10:02;;;;;;;3.57;1.40;;;4.60;83.90;;;;;;5151743;27;20306;-73
2023/03/28 12:12:57;;;;;;;3.07;1.40;;;5.10;78.30;;;;;;5145086;27;20209;-67
2023/03/28 12:15:46;;;;;;;1.93;1.20;;;3.80;77.20;;;;;;5141928;27;20204;-67
2023/03/28 12:18:40;;;;;;;2.70;1.40;;;3.10;74.70;;;;;;5134427;27;20233;-67
2023/03/28 12:21:31;;;;;;;2.53;1.63;;;2.50;84.80;;;;;;5141574;27;20261;-68
2023/03/28 12:24:22;;;;;;;2.30;1.40;;;1.70;97.40;;;;;;5136977;27;20720;-68
2023/03/28 12:27:13;;;;;;;4.77;1.90;;;1.30;99.90;;;;;;5135981;27;20301;-68
2023/03/28 12:30:05;;;;;;;2.40;1.53;;;1.20;99.90;;;;;;5143180;27;20221;-67
2023/03/28 12:32:58;;;;;;;3.37;2.10;;;1.10;99.90;;;;;;5141433;27;20193;-65
2023/03/28 12:35:48;;;;;;;5.63;2.27;;;0.80;99.90;;;;;;5140041;27;20279;-67
2023/03/28 12:38:38;;;;;;;6.40;3.20;;;0.50;99.90;;;;;;5137808;27;20204;-67
2023/03/28 12:41:27;;;;;;;4.97;2.67;;;-0.50;99.90;;;;;;5138281;27;20202;-67
2023/03/28 12:44:17;;;;;;;5.67;3.40;;;-0.80;99.90;;;;;;5137842;27;20652;-68
2023/03/28 12:47:05;;;;;;;8.57;4.23;;;-0.60;99.90;;;;;;5138977;27;20660;-67
2023/03/28 12:49:54;;;;;;;12.80;4.33;;;-0.40;99.90;;;;;;5135643;27;20218;-68
2023/03/28 12:52:44;;;;;;;7.30;3.97;;;-0.40;99.90;;;;;;5139052;27;20853;-68
2023/03/28 12:55:47;;;;;;;6.37;3.50;;;0.20;99.90;;;;;;5136386;27;20202;-68
2023/03/28 12:58:35;;;;;;;3.87;2.83;;;0.70;99.90;;;;;;5135744;27;20209;-67
2023/03/28 13:01:27;;;;;;;4.37;2.93;;;1.00;99.90;;;;;;5132197;27;20710;-68
2023/03/28 13:04:21;;;;;;;5.13;3.37;;;2.10;99.90;;;;;;5135495;27;20585;-67
2023/03/28 13:07:12;;;;;;;4.87;2.93;;;2.00;99.90;;;;;;5135011;27;20648;-67
2023/03/28 13:10:03;;;;;;;7.70;2.90;;;2.60;99.90;;;;;;5143194;27;20640;-67
2023/03/28 13:12:59;;;;;;;7.33;2.13;;;3.10;99.90;;;;;;5139449;27;20688;-68
2023/03/28 13:15:54;;;;;;;3.77;2.73;;;2.80;99.90;;;;;;5141855;27;20834;-68
2023/03/28 13:18:46;;;;;;;7.57;2.43;;;2.20;99.90;;;;;;5140741;27;20685;-68
2023/03/28 13:21:43;;;;;;;5.53;2.50;;;2.20;99.90;;;;;;5134482;27;20572;-67
2023/03/28 13:24:32;;;;;;;7.07;2.33;;;1.80;99.90;;;;;;5137243;27;20187;-67
2023/03/28 13:27:31;;;;;;;5.57;2.10;;;1.20;99.90;;;;;;5143860;27;20210;-67
2023/03/28 13:30:19;;;;;;;5.43;2.40;;;0.30;99.90;;;;;;5134311;27;20260;-67
2023/03/28 13:33:08;;;;;;;6.20;3.90;;;-0.90;99.90;;;;;;5133317;27;20672;-67
2023/03/28 13:36:17;;;;;;;7.53;4.00;;;-0.90;99.90;;;;;;5139638;27;20190;-68
2023/03/28 13:39:21;;;;;;;6.57;3.40;;;-0.70;99.90;;;;;;5141686;27;20213;-68
2023/03/28 13:42:25;;;;;;;6.10;3.40;;;-0.50;99.90;;;;;;5141040;27;20655;-67
2023/03/28 13:45:20;;;;;;;7.57;4.03;;;-0.20;99.90;;;;;;5136528;27;20197;-67
2023/03/28 13:48:08;;;;;;;8.47;3.77;;;-0.10;99.90;;;;;;5136636;27;20198;-67
2023/03/28 13:50:55;;;;;;;6.50;3.70;;;0.10;99.90;;;;;;5141627;27;20198;-68
2023/03/28 13:53:43;;;;;;;5.73;3.50;;;0.00;99.90;;;;;;5139170;27;20190;-68
2023/03/28 13:56:31;;;;;;;7.07;3.63;;;0.10;99.90;;;;;;5141525;27;20407;-68
2023/03/28 13:59:21;;;;;;;4.70;2.10;;;1.10;99.90;;;;;;5136596;27;20194;-68
2023/03/28 14:02:16;;;;;;;6.17;2.97;;;1.60;99.90;;;;;;5136927;27;20229;-68
2023/03/28 14:05:19;;;;;;;5.10;2.60;;;2.30;99.90;;;;;;5135873;27;20206;-68
2023/03/28 14:08:20;;;;;;;4.50;2.53;;;2.40;99.90;;;;;;5139108;27;20211;-68
2023/03/28 14:11:07;;;;;;;1.70;1.20;;;3.00;99.90;;;;;;5145306;27;20256;-67
2023/03/28 14:14:01;;;;;;;3.57;2.07;;;3.10;99.90;;;;;;5138367;27;20599;-67
2023/03/28 14:16:48;;;;;;;5.87;2.43;;;3.00;99.90;;;;;;5136678;27;20577;-67
2023/03/28 14:19:38;;;;;;;5.13;2.30;;;2.90;99.90;;;;;;5140298;27;20197;-67
2023/03/28 14:22:26;;;;;;;8.57;2.63;;;3.10;99.90;;;;;;5143642;27;20201;-67
2023/03/28 14:25:14;;;;;;;4.43;2.03;;;3.50;99.90;;;;;;5137025;27;20203;-68
2023/03/28 14:28:07;;;;;;;2.00;1.50;;;3.30;99.90;;;;;;5140924;27;20225;-68
2023/03/28 14:30:54;;;;;;;4.23;2.47;;;3.20;99.90;;;;;;5140047;27;20217;-67
2023/03/28 14:33:45;;;;;;;5.20;2.23;;;3.50;99.90;;;;;;5137820;27;20202;-69
2023/03/28 14:36:36;;;;;;;5.33;2.30;;;4.50;99.90;;;;;;5139164;27;20201;-67
2023/03/28 14:39:23;;;;;;;4.13;2.10;;;4.40;96.50;;;;;;5140076;27;20190;-68
2023/03/28 14:42:13;;;;;;;4.13;2.33;;;4.00;93.70;;;;;;5136281;27;20194;-67
2023/03/28 14:45:00;;;;;;;6.30;2.00;;;5.00;99.40;;;;;;5138225;27;20237;-68
2023/03/28 14:47:47;;;;;;;3.83;2.30;;;5.20;91.20;;;;;;5131541;27;20528;-68
2023/03/28 14:50:36;;;;;;;3.73;2.13;;;4.50;91.60;;;;;;5138156;27;20217;-67
2023/03/28 14:53:26;;;;;;;3.97;2.00;;;3.80;91.90;;;;;;5133462;27;20633;-67
2023/03/28 14:56:18;;;;;;;5.97;2.60;;;3.30;94.80;;;;;;5134244;27;20699;-69
2023/03/28 14:59:05;;;;;;;5.30;2.63;;;2.90;96.30;;;;;;5135183;27;20324;-68
2023/03/28 15:01:52;;;;;;;4.83;2.30;;;1.90;99.90;;;;;;5136052;27;20218;-67
2023/03/28 15:04:40;;;;;;;4.30;1.97;;;1.70;99.90;;;;;;5134169;27;20195;-68
2023/03/28 15:07:28;;;;;;;5.33;2.03;;;1.40;99.90;;;;;;5134422;27;20205;-66
2023/03/28 15:10:24;;;;;;;6.43;1.87;;;0.70;99.90;;;;;;5138107;27;20364;-68
2023/03/28 15:13:12;;;;;;;6.77;2.10;;;0.70;99.90;;;;;;5139563;27;20222;-67
2023/03/28 15:16:00;;;;;;;3.07;2.00;;;2.00;99.90;;;;;;5143947;27;20722;-67
2023/03/28 15:18:51;;;;;;;3.27;2.13;;;5.10;99.90;;;;;;5140687;27;20194;-68
2023/03/28 15:21:40;;;;;;;4.10;1.80;;;5.60;99.30;;;;;;5136982;27;20205;-68
2023/03/28 15:24:27;;;;;;;4.10;2.20;;;7.60;91.50;;;;;;5140209;27;20202;-68
2023/03/28 15:27:20;;;;;;;7.03;2.37;;;9.70;79.50;;;;;;5140323;27;20316;-68
2023/03/28 15:30:12;;;;;;;6.97;3.10;;;11.00;70.80;;;;;;5140942;27;20229;-68
2023/03/28 15:33:00;;;;;;;6.47;3.00;;;10.00;62.10;;;;;;5142569;27;20563;-67
2023/03/28 15:35:48;;;;;;;4.23;2.70;;;7.50;72.70;;;;;;5139878;27;20197;-68
2023/03/28 15:38:37;;;;;;;6.10;3.03;;;3.20;93.00;;;;;;5138487;27;20205;-68
2023/03/28 15:41:27;;;;;;;6.03;3.80;;;1.80;99.90;;;;;;5144633;27;20187;-68
2023/03/28 15:44:26;;;;;;;8.60;3.17;;;1.00;99.90;;;;;;5143848;27;20207;-68
2023/03/28 15:47:14;;;;;;;4.50;2.60;;;0.60;99.90;;;;;;5146015;27;20681;-67
2023/03/28 15:50:03;;;;;;;10.17;4.17;;;0.00;99.90;;;;;;5142452;27;20222;-67
2023/03/28 15:52:56;;;;;;;8.33;3.80;;;-0.50;99.90;;;;;;5143691;27;20202;-68
2023/03/28 15:55:43;;;;;;;5.30;3.33;;;-0.50;99.90;;;;;;5137562;27;20205;-68
2023/03/28 15:58:31;;;;;;;10.87;3.73;;;-0.50;99.90;;;;;;5147136;27;20194;-68
2023/03/28 16:01:22;;;;;;;10.33;5.83;;;-0.30;99.90;;;;;;5142915;27;20222;-68
2023/03/28 16:04:27;;;;;;;10.70;5.10;;;-0.30;99.90;;;;;;5149160;27;20190;-69
2023/03/28 16:07:15;;;;;;;10.27;5.93;;;-0.30;99.90;;;;;;5136574;27;20634;-69
2023/03/28 16:10:03;;;;;;;11.17;6.03;;;1.30;99.90;;;;;;5146446;27;20241;-68
2023/03/28 16:12:50;;;;;;;7.83;4.77;;;4.70;99.90;;;;;;5136598;27;21085;-69
2023/03/28 16:15:37;;;;;;;10.10;5.90;;;4.90;99.90;;;;;;5139058;27;20585;-68
2023/03/28 16:18:26;;;;;;;8.63;5.10;;;1.40;99.90;;;;;;5138286;27;20197;-70
2023/03/28 16:21:13;;;;;;;11.63;4.70;;;0.30;99.90;;;;;;5145302;27;20663;-69
2023/03/28 16:24:01;;;;;;;8.73;5.50;;;0.00;99.90;;;;;;5145062;27;20202;-70
2023/03/28 16:26:48;;;;;;;10.93;5.07;;;-0.20;99.90;;;;;;5145963;27;20193;-69
2023/03/28 16:29:35;;;;;;;8.70;5.40;;;-0.40;99.90;;;;;;5142813;27;20199;-71
2023/03/28 16:32:23;;;;;;;11.07;5.33;;;-0.40;99.90;;;;;;5142042;27;20208;-69
2023/03/28 16:35:12;;;;;;;8.40;4.47;;;-0.40;99.90;;;;;;5142912;27;20689;-69
2023/03/28 16:38:00;;;;;;;14.00;6.80;;;-0.40;99.90;;;;;;5139353;27;20656;-70
2023/03/28 16:40:47;;;;;;;14.97;7.20;;;-0.60;99.90;;;;;;5138566;27;20205;-68
2023/03/28 16:43:35;;;;;;;10.97;5.47;;;-0.60;99.90;;;;;;5148366;27;20197;-68
2023/03/28 16:46:23;;;;;;;11.47;5.63;;;-0.70;99.90;;;;;;5140446;27;20198;-69
2023/03/28 16:49:10;;;;;;;11.83;6.03;;;-0.80;99.90;;;;;;5134750;27;20201;-69
2023/03/28 16:51:59;;;;;;;13.87;6.30;;;-0.90;99.90;;;;;;5138645;27;20295;-72
2023/03/28 16:54:47;;;;;;;13.50;6.67;;;-0.90;99.90;;;;;;5141562;27;20571;-69
2023/03/28 16:57:34;;;;;;;15.47;7.57;;;-1.00;99.90;;;;;;5136825;27;20198;-69
2023/03/28 17:00:22;;;;;;;13.43;6.70;;;-1.00;99.90;;;;;;5138213;27;20213;-70
2023/03/28 17:03:09;;;;;;;18.93;7.23;;;-1.20;99.90;;;;;;5144416;27;20201;-70
2023/03/28 17:06:00;;;;;;;15.57;7.27;;;-1.10;99.90;;;;;;5144607;27;20553;-69
2023/03/28 17:08:51;;;;;;;19.13;9.40;;;-1.10;99.90;;;;;;5147678;27;20774;-68
2023/03/28 17:11:41;;;;;;;20.10;10.63;;;-1.10;99.90;;;;;;5144558;27;20213;-68
2023/03/28 17:14:28;;;;;;;14.80;7.10;;;-1.00;99.90;;;;;;5133919;27;20200;-68
2023/03/28 17:17:16;;;;;;;21.27;9.40;;;-1.10;99.90;;;;;;5146613;27;20568;-69
2023/03/28 17:20:03;;;;;;;20.07;10.17;;;-1.10;99.90;;;;;;5140570;27;20198;-69
2023/03/28 17:22:50;;;;;;;22.37;10.73;;;-1.20;99.90;;;;;;5140592;27;20693;-69
2023/03/28 17:25:39;;;;;;;16.70;8.57;;;-1.20;99.90;;;;;;5140799;27;20197;-69
2023/03/28 17:28:27;;;;;;;19.17;9.60;;;-1.20;99.90;;;;;;5139510;27;20199;-68
2023/03/28 17:31:15;;;;;;;14.20;7.00;;;-1.20;99.90;;;;;;5137323;27;20233;-69
2023/03/28 17:34:03;;;;;;;14.70;7.37;;;-1.30;99.90;;;;;;5135565;27;20202;-68
2023/03/28 17:36:52;;;;;;;13.17;6.40;;;-1.30;99.90;;;;;;5142377;27;20205;-68
2023/03/28 17:39:39;;;;;;;13.80;6.23;;;-1.30;99.90;;;;;;5135019;27;20209;-68
2023/03/28 17:42:28;;;;;;;10.23;5.33;;;-1.30;99.90;;;;;;5140729;27;21007;-69
2023/03/28 17:45:15;;;;;;;12.00;4.70;;;-1.30;99.90;;;;;;5146709;27;20620;-68
2023/03/28 17:48:02;;;;;;;6.20;3.20;;;-1.30;99.90;;;;;;5145199;27;20199;-68
2023/03/28 17:50:52;;;;;;;9.70;4.17;;;-1.40;99.90;;;;;;5140371;27;20282;-68
2023/03/28 17:53:39;;;;;;;10.53;4.37;;;-1.30;99.90;;;;;;5143041;27;20682;-68
2023/03/28 17:56:27;;;;;;;7.53;4.30;;;-1.30;99.90;;;;;;5142063;27;20270;-68